createdAt,value
2022-10-09T00:01:26.511Z,18.80
2022-10-09T00:03:56.544Z,18.81
2022-10-09T00:06:28.929Z,18.81
2022-10-09T00:08:56.894Z,18.71
2022-10-09T00:11:26.265Z,18.73
2022-10-09T00:13:55.334Z,18.81
2022-10-09T00:16:23.432Z,18.74
2022-10-09T00:18:52.084Z,18.82
2022-10-09T00:21:21.301Z,18.78
2022-10-09T00:23:49.814Z,18.73
2022-10-09T00:26:17.566Z,18.84
2022-10-09T00:28:45.629Z,18.83
2022-10-09T00:31:13.931Z,18.70
2022-10-09T00:33:59.528Z,18.72
2022-10-09T00:36:27.528Z,18.76
2022-10-09T00:38:55.493Z,18.62
2022-10-09T00:41:26.946Z,18.47
2022-10-09T00:43:57.781Z,18.23
2022-10-09T00:46:34.648Z,18.14
2022-10-09T00:49:08.173Z,18.09
2022-10-09T00:51:35.746Z,18.04
2022-10-09T00:54:07.113Z,17.93
2022-10-09T00:56:37.666Z,17.77
2022-10-09T00:59:05.930Z,17.75
2022-10-09T01:01:33.282Z,17.75
2022-10-09T01:04:00.750Z,17.76
2022-10-09T01:06:57.463Z,17.79
2022-10-09T01:09:37.888Z,17.80
2022-10-09T01:12:22.161Z,17.89
2022-10-09T01:15:33.943Z,17.92
2022-10-09T01:18:23.368Z,18.11
2022-10-09T01:21:19.861Z,18.17
2022-10-09T01:24:02.277Z,18.03
2022-10-09T01:26:57.067Z,17.94
2022-10-09T01:29:28.550Z,17.83
2022-10-09T01:31:58.550Z,17.88
2022-10-09T01:34:27.673Z,17.91
2022-10-09T01:36:57.534Z,17.83
2022-10-09T01:39:26.825Z,17.76
2022-10-09T01:41:55.516Z,17.76
2022-10-09T01:44:26.148Z,17.82
2022-10-09T01:46:54.880Z,17.79
2022-10-09T01:49:43.239Z,17.98
2022-10-09T01:52:22.795Z,18.04
2022-10-09T01:55:02.389Z,18.10
2022-10-09T01:57:40.656Z,17.94
2022-10-09T02:00:11.030Z,17.83
2022-10-09T02:02:43.615Z,17.81
2022-10-09T02:05:15.250Z,17.81
2022-10-09T02:07:43.330Z,17.80
2022-10-09T02:10:11.062Z,17.73
2022-10-09T02:12:43.939Z,17.73
2022-10-09T02:15:12.193Z,17.57
2022-10-09T02:17:45.486Z,17.66
2022-10-09T02:20:22.634Z,17.83
2022-10-09T02:22:50.518Z,18.24
2022-10-09T02:25:18.733Z,18.10
2022-10-09T02:27:47.218Z,18.16
2022-10-09T02:30:16.364Z,18.05
2022-10-09T02:32:43.886Z,18.00
2022-10-09T02:35:11.357Z,17.96
2022-10-09T02:37:38.760Z,18.03
2022-10-09T02:40:10.548Z,18.06
2022-10-09T02:42:38.158Z,18.06
2022-10-09T02:45:06.116Z,18.02
2022-10-09T02:47:33.603Z,18.04
2022-10-09T02:50:01.023Z,17.86
2022-10-09T02:52:28.475Z,17.74
2022-10-09T02:54:55.835Z,17.69
2022-10-09T02:57:23.226Z,17.69
2022-10-09T02:59:50.516Z,17.68
2022-10-09T03:02:18.012Z,17.86
2022-10-09T03:04:45.472Z,18.16
2022-10-09T03:07:12.793Z,18.11
2022-10-09T03:09:40.203Z,18.06
2022-10-09T03:12:07.536Z,18.10
2022-10-09T03:14:35.186Z,18.24
2022-10-09T03:17:02.481Z,18.24
2022-10-09T03:19:29.844Z,18.15
2022-10-09T03:21:57.127Z,18.33
2022-10-09T03:24:24.705Z,18.33
2022-10-09T03:26:52.030Z,18.38
2022-10-09T03:29:19.510Z,18.40
2022-10-09T03:31:52.510Z,18.33
2022-10-09T03:34:20.573Z,18.28
2022-10-09T03:36:47.951Z,18.31
2022-10-09T03:39:15.306Z,18.35
2022-10-09T03:41:42.721Z,18.19
2022-10-09T03:44:10.041Z,18.27
2022-10-09T03:46:37.478Z,18.32
2022-10-09T03:49:04.940Z,18.20
2022-10-09T03:51:33.677Z,18.27
2022-10-09T03:54:01.030Z,18.28
2022-10-09T03:56:28.394Z,18.19
2022-10-09T03:58:55.749Z,18.18
2022-10-09T04:01:23.362Z,18.08
2022-10-09T04:03:50.947Z,17.93
2022-10-09T04:06:18.289Z,17.88
2022-10-09T04:08:45.619Z,17.89
2022-10-09T04:11:12.908Z,17.80
2022-10-09T04:13:43.324Z,17.83
2022-10-09T04:16:12.878Z,17.75
2022-10-09T04:18:42.036Z,17.86
2022-10-09T04:21:09.445Z,17.78
2022-10-09T04:23:36.742Z,17.70
2022-10-09T04:26:04.124Z,17.63
2022-10-09T04:28:31.882Z,17.65
2022-10-09T04:30:59.573Z,17.70
2022-10-09T04:33:27.521Z,17.67
2022-10-09T04:35:55.929Z,17.65
2022-10-09T04:38:24.778Z,17.70
2022-10-09T04:40:57.853Z,17.69
2022-10-09T04:43:26.361Z,17.65
2022-10-09T04:45:54.011Z,17.62
2022-10-09T04:48:21.537Z,17.61
2022-10-09T04:50:48.869Z,17.61
2022-10-09T04:53:16.339Z,17.53
2022-10-09T04:55:44.504Z,17.57
2022-10-09T04:58:15.241Z,17.57
2022-10-09T05:00:45.240Z,17.58
2022-10-09T05:03:12.925Z,17.63
2022-10-09T05:05:40.277Z,17.73
2022-10-09T05:08:07.696Z,17.74
2022-10-09T05:10:35.052Z,17.79
2022-10-09T05:13:02.413Z,17.74
2022-10-09T05:15:29.842Z,17.75
2022-10-09T05:17:57.172Z,17.59
2022-10-09T05:20:24.507Z,17.61
2022-10-09T05:22:52.408Z,17.64
2022-10-09T05:25:20.004Z,17.60
2022-10-09T05:27:50.592Z,17.52
2022-10-09T05:30:17.999Z,17.50
2022-10-09T05:32:45.290Z,17.37
2022-10-09T05:35:12.647Z,17.31
2022-10-09T05:37:40.003Z,17.44
2022-10-09T05:40:08.162Z,17.37
2022-10-09T05:42:35.441Z,17.40
2022-10-09T05:45:03.026Z,17.61
2022-10-09T05:47:31.158Z,17.54
2022-10-09T05:49:58.571Z,17.71
2022-10-09T05:52:25.887Z,17.54
2022-10-09T05:54:53.241Z,17.57
2022-10-09T05:57:20.619Z,17.50
2022-10-09T05:59:47.894Z,17.55
2022-10-09T06:02:15.231Z,17.62
2022-10-09T06:04:44.355Z,17.66
2022-10-09T06:07:11.718Z,17.65
2022-10-09T06:09:39.507Z,17.64
2022-10-09T06:12:06.854Z,17.73
2022-10-09T06:14:34.143Z,17.71
2022-10-09T06:17:01.750Z,17.82
2022-10-09T06:19:29.185Z,17.81
2022-10-09T06:21:56.516Z,17.89
2022-10-09T06:24:28.769Z,17.96
2022-10-09T06:26:59.734Z,17.89
2022-10-09T06:29:28.073Z,17.82
2022-10-09T06:31:55.389Z,17.84
2022-10-09T06:34:22.895Z,17.86
2022-10-09T06:36:50.280Z,17.89
2022-10-09T06:39:17.885Z,17.82
2022-10-09T06:41:45.299Z,17.91
2022-10-09T06:44:29.526Z,18.01
2022-10-09T06:46:56.860Z,17.99
2022-10-09T06:49:24.280Z,17.96
2022-10-09T06:51:51.610Z,17.96
2022-10-09T06:54:19.024Z,18.00
2022-10-09T06:56:46.427Z,18.22
2022-10-09T06:59:13.882Z,18.14
2022-10-09T07:01:41.329Z,18.21
2022-10-09T07:04:14.363Z,18.38
2022-10-09T07:06:44.425Z,18.41
2022-10-09T07:09:13.883Z,18.66
2022-10-09T07:11:44.349Z,18.74
2022-10-09T07:14:13.664Z,19.03
2022-10-09T07:16:44.071Z,19.27
2022-10-09T07:19:15.543Z,19.39
2022-10-09T07:21:44.705Z,19.70
2022-10-09T07:24:13.127Z,19.65
2022-10-09T07:26:42.920Z,19.78
2022-10-09T07:29:12.572Z,20.00
2022-10-09T07:31:39.887Z,20.12
2022-10-09T07:34:07.734Z,20.40
2022-10-09T07:36:35.464Z,20.36
2022-10-09T07:39:04.968Z,20.25
2022-10-09T07:41:32.396Z,20.29
2022-10-09T07:43:59.837Z,20.43
2022-10-09T07:46:32.989Z,20.43
2022-10-09T07:49:01.987Z,20.59
2022-10-09T07:51:30.856Z,20.47
2022-10-09T07:54:00.050Z,20.46
2022-10-09T07:56:32.474Z,20.57
2022-10-09T07:59:02.545Z,20.74
2022-10-09T08:01:31.684Z,20.91
2022-10-09T08:04:00.115Z,20.92
2022-10-09T08:06:28.418Z,21.12
2022-10-09T08:08:57.763Z,21.23
2022-10-09T08:11:27.046Z,21.24
2022-10-09T08:13:54.743Z,21.49
2022-10-09T08:16:23.736Z,21.54
2022-10-09T08:18:58.055Z,21.80
2022-10-09T08:21:27.853Z,21.70
2022-10-09T08:23:57.601Z,21.95
2022-10-09T08:26:27.176Z,21.92
2022-10-09T08:29:05.190Z,22.11
2022-10-09T08:31:32.721Z,22.40
2022-10-09T08:34:02.032Z,22.54
2022-10-09T08:36:30.053Z,22.70
2022-10-09T08:38:58.266Z,23.46
2022-10-09T08:41:39.740Z,23.98
2022-10-09T08:44:10.981Z,24.84
2022-10-09T08:46:53.683Z,25.12
2022-10-09T08:49:36.751Z,25.99
2022-10-09T08:52:16.956Z,26.14
2022-10-09T08:54:44.467Z,26.09
2022-10-09T08:57:15.844Z,25.85
2022-10-09T08:59:44.300Z,26.04
2022-10-09T09:02:47.914Z,25.54
2022-10-09T09:05:37.570Z,26.97
2022-10-09T09:08:23.545Z,27.59
2022-10-09T09:11:23.621Z,27.02
2022-10-09T09:14:30.090Z,26.82
2022-10-09T09:17:19.233Z,27.06
2022-10-09T09:19:55.142Z,27.30
2022-10-09T09:22:24.658Z,27.06
2022-10-09T09:24:54.870Z,26.85
2022-10-09T09:27:31.859Z,26.64
2022-10-09T09:30:04.348Z,26.72
2022-10-09T09:32:33.279Z,26.39
2022-10-09T09:35:19.399Z,26.86
2022-10-09T09:37:47.180Z,25.99
2022-10-09T09:40:36.067Z,25.95
2022-10-09T09:43:14.940Z,25.44
2022-10-09T09:45:43.968Z,24.57
2022-10-09T09:48:16.695Z,24.41
2022-10-09T09:50:56.475Z,24.82
2022-10-09T09:53:34.432Z,25.42
2022-10-09T09:56:02.108Z,25.47
2022-10-09T09:58:50.434Z,25.49
2022-10-09T10:01:24.750Z,25.60
2022-10-09T10:03:55.120Z,25.88
2022-10-09T10:06:28.930Z,25.23
2022-10-09T10:08:58.998Z,24.86
2022-10-09T10:11:26.749Z,24.20
2022-10-09T10:13:54.255Z,24.34
2022-10-09T10:16:24.936Z,24.19
2022-10-09T10:18:57.523Z,23.90
2022-10-09T10:21:24.887Z,23.85
2022-10-09T10:24:10.732Z,23.96
2022-10-09T10:26:44.140Z,23.88
2022-10-09T10:29:17.593Z,23.61
2022-10-09T10:31:52.815Z,23.22
2022-10-09T10:34:28.165Z,23.35
2022-10-09T10:37:13.706Z,23.70
2022-10-09T10:39:50.203Z,23.59
2022-10-09T10:42:57.436Z,23.45
2022-10-09T10:45:35.645Z,23.24
2022-10-09T10:48:04.504Z,23.71
2022-10-09T10:50:38.982Z,23.48
2022-10-09T10:53:37.939Z,23.23
2022-10-09T10:56:35.653Z,23.11
2022-10-09T10:59:21.822Z,23.00
2022-10-09T11:02:00.946Z,22.96
2022-10-09T11:05:06.881Z,22.80
2022-10-09T11:07:56.584Z,22.64
2022-10-09T11:10:26.486Z,22.65
2022-10-09T11:13:19.667Z,22.54
2022-10-09T11:16:10.509Z,22.49
2022-10-09T11:19:06.069Z,22.90
2022-10-09T11:21:52.018Z,22.78
2022-10-09T11:24:43.922Z,23.10
2022-10-09T11:27:28.775Z,23.37
2022-10-09T11:30:02.297Z,23.63
2022-10-09T11:32:36.731Z,23.97
2022-10-09T11:35:04.359Z,23.41
2022-10-09T11:37:36.256Z,23.33
2022-10-09T11:40:13.289Z,23.64
2022-10-09T11:42:40.903Z,23.76
2022-10-09T11:45:46.793Z,23.58
2022-10-09T11:48:33.039Z,23.66
2022-10-09T11:51:16.137Z,23.99
2022-10-09T11:53:48.008Z,23.94
2022-10-09T11:56:22.784Z,24.16
2022-10-09T11:59:07.177Z,24.12
2022-10-09T12:01:40.416Z,24.56
2022-10-09T12:04:32.320Z,24.41
2022-10-09T12:07:12.558Z,23.99
2022-10-09T12:09:48.474Z,23.46
2022-10-09T12:12:15.736Z,23.34
2022-10-09T12:14:45.823Z,23.17
2022-10-09T12:17:22.134Z,23.70
2022-10-09T12:20:04.877Z,24.20
2022-10-09T12:22:36.675Z,24.76
2022-10-09T12:25:27.457Z,24.50
2022-10-09T12:27:57.591Z,24.55
2022-10-09T12:30:33.503Z,24.51
2022-10-09T12:33:26.443Z,24.58
2022-10-09T12:36:06.453Z,24.58
2022-10-09T12:38:33.753Z,24.50
2022-10-09T12:41:10.663Z,24.58
2022-10-09T12:43:44.493Z,24.60
2022-10-09T12:46:11.894Z,24.67
2022-10-09T12:48:43.558Z,25.00
2022-10-09T12:51:23.080Z,24.70
2022-10-09T12:53:51.949Z,24.62
2022-10-09T12:56:31.437Z,24.51
2022-10-09T12:59:01.390Z,24.57
2022-10-09T13:01:29.606Z,24.44
2022-10-09T13:04:00.220Z,24.36
2022-10-09T13:06:43.972Z,24.49
2022-10-09T13:09:35.573Z,24.34
2022-10-09T13:12:21.887Z,24.37
2022-10-09T13:14:56.379Z,24.36
2022-10-09T13:20:16.804Z,24.48
2022-10-09T13:23:26.764Z,24.22
2022-10-09T13:25:54.294Z,24.27
2022-10-09T13:28:21.788Z,24.35
2022-10-09T13:30:49.375Z,24.37
2022-10-09T13:33:17.363Z,24.25
2022-10-09T13:35:44.903Z,23.93
2022-10-09T13:38:17.372Z,24.01
2022-10-09T13:40:45.001Z,24.33
2022-10-09T13:43:22.497Z,24.43
2022-10-09T13:45:49.834Z,24.50
2022-10-09T13:48:18.243Z,24.24
2022-10-09T13:50:46.104Z,24.08
2022-10-09T13:53:13.442Z,23.84
2022-10-09T13:55:40.730Z,23.75
2022-10-09T13:58:08.059Z,23.76
2022-10-09T14:00:37.153Z,23.61
2022-10-09T14:03:05.039Z,23.61
2022-10-09T14:05:32.327Z,23.69
2022-10-09T14:07:59.638Z,23.78
2022-10-09T14:10:27.080Z,23.83
2022-10-09T14:12:54.447Z,23.95
2022-10-09T14:15:21.967Z,23.82
2022-10-09T14:17:49.499Z,23.73
2022-10-09T14:20:17.170Z,23.72
2022-10-09T14:22:44.537Z,23.50
2022-10-09T14:25:11.811Z,23.62
2022-10-09T14:27:41.564Z,23.84
2022-10-09T14:30:11.647Z,23.77
2022-10-09T14:32:38.977Z,23.60
2022-10-09T14:35:06.863Z,23.55
2022-10-09T14:37:41.566Z,23.49
2022-10-09T14:40:11.064Z,23.44
2022-10-09T14:42:39.235Z,23.31
2022-10-09T14:45:07.761Z,23.21
2022-10-09T14:47:35.519Z,23.23
2022-10-09T14:50:02.839Z,23.25
2022-10-09T14:52:30.461Z,23.19
2022-10-09T14:54:57.791Z,23.17
2022-10-09T14:57:25.115Z,22.97
2022-10-09T14:59:53.056Z,23.13
2022-10-09T15:02:20.554Z,23.20
2022-10-09T15:04:47.854Z,23.12
2022-10-09T15:07:15.165Z,23.20
2022-10-09T15:09:42.535Z,23.24
2022-10-09T15:12:09.802Z,23.17
2022-10-09T15:14:37.233Z,23.24
2022-10-09T15:17:04.490Z,23.36
2022-10-09T15:19:31.914Z,23.23
2022-10-09T15:21:59.278Z,23.12
2022-10-09T15:24:26.605Z,23.12
2022-10-09T15:26:53.913Z,23.20
2022-10-09T15:29:21.221Z,23.14
2022-10-09T15:31:51.262Z,23.01
2022-10-09T15:34:19.944Z,23.08
2022-10-09T15:36:47.274Z,22.91
2022-10-09T15:39:17.253Z,22.83
2022-10-09T15:41:44.703Z,22.71
2022-10-09T15:44:17.816Z,22.68
2022-10-09T15:46:46.209Z,22.62
2022-10-09T15:49:13.767Z,22.62
2022-10-09T15:51:41.207Z,22.56
2022-10-09T15:54:08.657Z,22.50
2022-10-09T15:56:39.720Z,22.43
2022-10-09T15:59:10.418Z,22.31
2022-10-09T16:01:37.816Z,22.33
2022-10-09T16:04:05.147Z,22.21
2022-10-09T16:06:32.452Z,22.25
2022-10-09T16:09:00.903Z,22.24
2022-10-09T16:11:28.295Z,22.09
2022-10-09T16:13:56.065Z,22.12
2022-10-09T16:16:25.874Z,22.01
2022-10-09T16:18:54.192Z,21.90
2022-10-09T16:21:24.320Z,21.90
2022-10-09T16:23:57.303Z,21.79
2022-10-09T16:26:28.158Z,21.77
2022-10-09T16:28:55.605Z,21.68
2022-10-09T16:31:26.171Z,21.64
2022-10-09T16:33:53.876Z,21.62
2022-10-09T16:36:24.367Z,21.56
2022-10-09T16:38:51.734Z,21.50
2022-10-09T16:41:20.898Z,21.46
2022-10-09T16:43:53.499Z,21.50
2022-10-09T16:46:22.619Z,21.44
2022-10-09T16:48:51.615Z,21.36
2022-10-09T16:51:24.307Z,21.27
2022-10-09T16:53:53.641Z,21.32
2022-10-09T16:56:24.213Z,21.32
2022-10-09T16:58:55.632Z,21.14
2022-10-09T17:01:23.741Z,21.06
2022-10-09T17:03:53.028Z,20.98
2022-10-09T17:06:23.420Z,21.01
2022-10-09T17:08:52.123Z,21.04
2022-10-09T17:11:22.066Z,20.97
2022-10-09T17:13:49.564Z,20.97
2022-10-09T17:16:19.823Z,20.89
2022-10-09T17:18:48.288Z,20.91
2022-10-09T17:21:17.553Z,20.88
2022-10-09T17:23:45.752Z,20.78
2022-10-09T17:26:15.998Z,20.75
2022-10-09T17:28:44.377Z,20.69
2022-10-09T17:31:16.914Z,20.67
2022-10-09T17:33:46.276Z,20.65
2022-10-09T17:36:18.535Z,20.62
2022-10-09T17:38:49.847Z,20.61
2022-10-09T17:41:24.388Z,20.57
2022-10-09T17:43:53.364Z,20.53
2022-10-09T17:46:22.155Z,20.44
2022-10-09T17:48:53.511Z,20.34
2022-10-09T17:51:25.416Z,20.25
2022-10-09T17:53:54.280Z,20.30
2022-10-09T17:56:22.653Z,20.26
2022-10-09T17:58:50.252Z,20.18
2022-10-09T18:01:18.306Z,20.02
2022-10-09T18:03:45.966Z,19.91
2022-10-09T18:06:16.334Z,19.84
2022-10-09T18:08:44.570Z,19.96
2022-10-09T18:11:17.108Z,19.90
2022-10-09T18:13:45.392Z,19.94
2022-10-09T18:16:18.016Z,20.01
2022-10-09T18:18:46.492Z,19.98
2022-10-09T18:21:17.001Z,19.86
2022-10-09T18:23:50.501Z,19.88
2022-10-09T18:26:19.455Z,19.91
2022-10-09T18:28:48.611Z,19.84
2022-10-09T18:31:20.002Z,20.03
2022-10-09T18:33:48.203Z,19.95
2022-10-09T18:36:19.774Z,20.02
2022-10-09T18:38:49.896Z,20.01
2022-10-09T18:41:18.619Z,19.97
2022-10-09T18:43:46.542Z,19.85
2022-10-09T18:46:16.199Z,19.76
2022-10-09T18:48:44.600Z,19.86
2022-10-09T18:51:16.411Z,19.82
2022-10-09T18:53:47.206Z,19.84
2022-10-09T18:56:16.922Z,19.77
2022-10-09T18:58:44.596Z,19.73
2022-10-09T19:01:12.649Z,19.78
2022-10-09T19:03:45.901Z,19.75
2022-10-09T19:06:17.483Z,19.82
2022-10-09T19:08:44.958Z,19.74
2022-10-09T19:11:15.518Z,19.75
2022-10-09T19:13:43.929Z,19.67
2022-10-09T19:16:11.736Z,19.70
2022-10-09T19:18:39.784Z,19.70
2022-10-09T19:21:11.626Z,19.68
2022-10-09T19:23:39.126Z,19.63
2022-10-09T19:26:06.584Z,19.54
2022-10-09T19:28:38.778Z,19.69
2022-10-09T19:31:08.758Z,19.60
2022-10-09T19:33:38.693Z,19.51
2022-10-09T19:36:06.789Z,19.70
2022-10-09T19:38:35.133Z,19.63
2022-10-09T19:41:08.002Z,19.63
2022-10-09T19:43:37.532Z,19.57
2022-10-09T19:46:10.594Z,19.50
2022-10-09T19:48:38.388Z,19.59
2022-10-09T19:51:13.247Z,19.58
2022-10-09T19:53:40.889Z,19.50
2022-10-09T19:56:13.405Z,19.41
2022-10-09T19:58:45.643Z,19.46
2022-10-09T20:01:15.992Z,19.38
2022-10-09T20:03:44.195Z,19.27
2022-10-09T20:06:12.015Z,19.37
2022-10-09T20:08:41.613Z,19.26
2022-10-09T20:11:12.646Z,19.34
2022-10-09T20:13:42.037Z,19.32
2022-10-09T20:16:12.925Z,19.36
2022-10-09T20:18:44.730Z,19.30
2022-10-09T20:21:13.973Z,19.30
2022-10-09T20:23:41.843Z,19.30
2022-10-09T20:26:13.104Z,19.29
2022-10-09T20:28:40.958Z,19.23
2022-10-09T20:31:10.831Z,19.14
2022-10-09T20:33:38.970Z,19.11
2022-10-09T20:36:07.002Z,19.29
2022-10-09T20:38:35.279Z,19.28
2022-10-09T20:41:07.809Z,19.21
2022-10-09T20:43:36.581Z,19.17
2022-10-09T20:46:08.623Z,19.30
2022-10-09T20:48:36.315Z,19.21
2022-10-09T20:51:04.038Z,19.18
2022-10-09T20:53:31.779Z,19.02
2022-10-09T20:56:06.802Z,19.08
2022-10-09T20:58:34.930Z,18.99
2022-10-09T21:01:10.389Z,19.07
2022-10-09T21:03:40.304Z,19.03
2022-10-09T21:06:10.467Z,19.14
2022-10-09T21:08:38.717Z,19.09
2022-10-09T21:11:08.327Z,19.14
2022-10-09T21:13:36.608Z,19.03
2022-10-09T21:16:12.419Z,18.88
2022-10-09T21:18:40.368Z,19.09
2022-10-09T21:21:13.305Z,18.98
2022-10-09T21:23:45.167Z,18.89
2022-10-09T21:26:15.516Z,18.91
2022-10-09T21:28:43.900Z,18.97
2022-10-09T21:31:23.434Z,18.87
2022-10-09T21:33:53.752Z,18.92
2022-10-09T21:36:32.953Z,18.84
2022-10-09T21:39:00.348Z,18.95
2022-10-09T21:41:27.852Z,18.91
2022-10-09T21:43:55.308Z,18.80
2022-10-09T21:46:22.918Z,18.85
2022-10-09T21:48:50.531Z,18.80
2022-10-09T21:51:18.184Z,18.80
2022-10-09T21:53:45.715Z,18.73
2022-10-09T21:56:13.479Z,18.79
2022-10-09T21:58:45.442Z,18.87
2022-10-09T22:01:16.055Z,18.86
2022-10-09T22:03:43.485Z,18.81
2022-10-09T22:06:18.704Z,18.85
2022-10-09T22:08:48.042Z,18.72
2022-10-09T22:11:16.645Z,18.68
2022-10-09T22:13:43.981Z,18.68
2022-10-09T22:16:14.261Z,18.76
2022-10-09T22:18:42.328Z,18.64
2022-10-09T22:21:17.418Z,18.74
2022-10-09T22:23:44.942Z,18.63
2022-10-09T22:26:16.992Z,18.68
2022-10-09T22:28:44.996Z,18.70
2022-10-09T22:31:18.103Z,18.71
2022-10-09T22:33:51.201Z,18.72
2022-10-09T22:36:20.987Z,18.85
2022-10-09T22:38:48.398Z,18.72
2022-10-09T22:41:20.803Z,18.67
2022-10-09T22:43:50.243Z,18.68
2022-10-09T22:46:21.728Z,18.73
2022-10-09T22:48:49.907Z,18.75
2022-10-09T22:51:18.784Z,18.82
2022-10-09T22:53:47.373Z,18.60
2022-10-09T22:56:18.103Z,18.70
2022-10-09T22:58:46.672Z,18.55
2022-10-09T23:01:18.150Z,18.68
2022-10-09T23:03:45.495Z,18.61
2022-10-09T23:06:19.053Z,18.59
2022-10-09T23:08:47.671Z,18.51
2022-10-09T23:11:16.620Z,18.66
2022-10-09T23:13:44.952Z,18.73
2022-10-09T23:16:14.501Z,18.61
2022-10-09T23:18:42.998Z,18.68
2022-10-09T23:21:13.862Z,18.44
2022-10-09T23:23:41.993Z,18.38
2022-10-09T23:26:12.343Z,18.56
2022-10-09T23:28:40.802Z,18.55
2022-10-09T23:31:09.748Z,18.67
2022-10-09T23:33:42.052Z,18.57
2022-10-09T23:36:11.951Z,18.61
2022-10-09T23:38:39.570Z,18.81
2022-10-09T23:41:12.536Z,18.73
2022-10-09T23:43:41.621Z,18.73
2022-10-09T23:46:13.447Z,18.75
2022-10-09T23:48:41.789Z,18.70
2022-10-09T23:51:10.072Z,18.74
2022-10-09T23:53:38.001Z,18.66
2022-10-09T23:56:14.548Z,18.64
2022-10-09T23:58:41.843Z,18.58
